createdAt,value
2017-07-14T00:02:48.520Z,0
2017-07-14T00:12:48.608Z,0
2017-07-14T00:22:48.528Z,0
2017-07-14T00:32:48.638Z,0
2017-07-14T00:42:48.595Z,0
2017-07-14T00:52:48.519Z,0
2017-07-14T01:02:48.595Z,0
2017-07-14T01:12:48.569Z,0
2017-07-14T01:22:48.511Z,0
2017-07-14T01:32:48.576Z,0
2017-07-14T01:42:48.580Z,0
2017-07-14T01:52:48.603Z,0
2017-07-14T02:02:48.567Z,0
2017-07-14T02:12:48.557Z,0
2017-07-14T02:22:48.583Z,0
2017-07-14T02:32:48.645Z,0
2017-07-14T02:42:48.525Z,0
2017-07-14T02:52:48.608Z,0
2017-07-14T03:02:48.615Z,0
2017-07-14T03:12:48.530Z,0
2017-07-14T03:22:48.540Z,0
2017-07-14T03:32:48.582Z,5
2017-07-14T03:42:48.582Z,10
2017-07-14T03:52:48.546Z,20
2017-07-14T04:02:48.502Z,30
2017-07-14T04:12:48.562Z,50
2017-07-14T04:22:48.519Z,70
2017-07-14T04:32:48.479Z,70
2017-07-14T04:42:48.548Z,80
2017-07-14T04:52:48.532Z,85
2017-07-14T05:02:48.576Z,90
2017-07-14T05:12:48.565Z,95
2017-07-14T05:22:48.505Z,115
2017-07-14T05:32:48.568Z,110
2017-07-14T05:42:48.545Z,115
2017-07-14T05:52:48.492Z,125
2017-07-14T06:02:48.526Z,165
2017-07-14T06:12:48.513Z,245
2017-07-14T06:22:48.489Z,275
2017-07-14T06:32:48.548Z,295
2017-07-14T06:42:48.510Z,310
2017-07-14T06:52:48.608Z,325
2017-07-14T07:02:48.586Z,345
2017-07-14T07:12:48.613Z,365
2017-07-14T07:22:48.587Z,365
2017-07-14T07:32:48.643Z,380
2017-07-14T07:42:48.605Z,385
2017-07-14T07:52:48.566Z,405
2017-07-14T08:02:48.557Z,365
2017-07-14T08:12:48.553Z,390
2017-07-14T08:22:48.533Z,190
2017-07-14T08:32:48.612Z,445
2017-07-14T08:42:48.512Z,355
2017-07-14T08:52:48.543Z,410
2017-07-14T09:02:48.578Z,360
2017-07-14T09:12:48.539Z,250
2017-07-14T09:22:48.558Z,220
2017-07-14T09:32:48.669Z,285
2017-07-14T09:42:48.553Z,285
2017-07-14T09:52:48.552Z,315
2017-07-14T10:02:48.590Z,330
2017-07-14T10:12:48.618Z,330
2017-07-14T10:22:48.543Z,290
2017-07-14T10:32:48.569Z,295
2017-07-14T10:42:49.028Z,325
2017-07-14T10:52:48.589Z,335
2017-07-14T11:02:48.583Z,275
2017-07-14T11:12:48.564Z,350
2017-07-14T11:22:48.680Z,295
2017-07-14T11:32:48.642Z,325
2017-07-14T11:42:48.709Z,225
2017-07-14T11:52:48.636Z,190
2017-07-14T12:02:48.641Z,225
2017-07-14T12:12:49.362Z,280
2017-07-14T12:22:48.599Z,220
2017-07-14T12:32:48.673Z,165
2017-07-14T12:42:48.661Z,165
2017-07-14T12:52:48.771Z,240
2017-07-14T13:02:48.718Z,310
2017-07-14T13:12:49.636Z,300
2017-07-14T13:22:48.717Z,295
2017-07-14T13:32:49.040Z,230
2017-07-14T13:42:51.018Z,165
2017-07-14T13:52:49.260Z,190
2017-07-14T14:02:48.678Z,150
2017-07-14T14:12:48.716Z,140
2017-07-14T14:22:48.590Z,130
2017-07-14T14:32:48.603Z,120
2017-07-14T14:42:50.656Z,100
2017-07-14T14:52:48.618Z,115
2017-07-14T15:02:48.669Z,80
2017-07-14T15:12:48.828Z,35
2017-07-14T15:22:48.636Z,90
2017-07-14T15:32:48.716Z,120
2017-07-14T15:42:48.605Z,40
2017-07-14T15:52:48.618Z,95
2017-07-14T16:02:48.628Z,130
2017-07-14T16:12:48.788Z,165
2017-07-14T16:22:49.348Z,145
2017-07-14T16:32:49.116Z,120
2017-07-14T16:42:49.399Z,130
2017-07-14T16:52:48.619Z,115
2017-07-14T17:02:48.645Z,110
2017-07-14T17:12:48.660Z,95
2017-07-14T17:22:48.639Z,80
2017-07-14T17:32:48.649Z,45
2017-07-14T17:42:49.123Z,65
2017-07-14T17:52:48.806Z,80
2017-07-14T18:02:48.628Z,65
2017-07-14T18:12:48.656Z,60
2017-07-14T18:22:48.641Z,60
2017-07-14T18:32:48.774Z,40
2017-07-14T18:42:48.650Z,30
2017-07-14T18:52:48.646Z,35
2017-07-14T19:02:49.059Z,25
2017-07-14T19:12:49.012Z,15
2017-07-14T19:22:50.712Z,10
2017-07-14T19:32:49.458Z,5
2017-07-14T19:42:50.285Z,0
2017-07-14T20:02:48.783Z,0
2017-07-14T20:12:58.864Z,0
2017-07-14T20:23:06.390Z,0
2017-07-14T20:32:49.500Z,0
2017-07-14T20:42:48.719Z,0
2017-07-14T20:52:51.486Z,0
2017-07-14T21:02:52.684Z,0
2017-07-14T21:12:48.686Z,0
2017-07-14T21:22:48.754Z,0
2017-07-14T21:32:50.558Z,0
2017-07-14T21:42:48.724Z,0
2017-07-14T21:52:48.682Z,0
2017-07-14T22:02:48.794Z,0
2017-07-14T22:12:48.777Z,0
2017-07-14T22:22:48.634Z,0
2017-07-14T22:32:48.647Z,0
2017-07-14T22:42:48.761Z,0
2017-07-14T22:52:55.508Z,0
2017-07-14T23:02:49.676Z,0
2017-07-14T23:12:48.668Z,0
2017-07-14T23:22:48.630Z,0
2017-07-14T23:32:48.671Z,0
2017-07-14T23:42:49.560Z,0
2017-07-14T23:52:48.669Z,0
